Mae Sot Airport
VTPM : now visible

Aeroporto :











RITROVATECI SU...

 
LOGIN :

Iscrizione | Disclaimer

   EN    FR    IT 

 









Sommario :    VFR   VFR Marginale   IFR   IFR Intensivo   IFR Molto Intensivo
Visibilità : 
Base nubi : 
>= 8 km
>= 3000ft
5 / 8 km
1000 / 3000 ft
1500m / 5 km
500 / 1000 ft
800 / 1500m
200 / 500 ft
< 800m
< 200 ft
Simboli :   Temporali  Nebbia  Neve Forte  Precipitazioni Forti  Vento > 20 kt






- Altitudine del aeroporto : 690 ft
- Codice IATA : MAQ


VTPM - Mae Sot

ULTIMO METAR :
  • 190500Z 23006KT 180V270 9000 FEW020 BKN025 BKN030 28/23 Q1006 NOSIG

METARs OBSOLETI :
  • 190400Z 25003KT 220V290 9999 FEW017 BKN024 BKN033 27/24 Q1007 NOSIG
  • 190300Z 25006KT 220V290 7000 -RA FEW020 SCT025 BKN040 27/24 Q1007 NOSIG
  • 190200Z VRB02KT 9999 FEW020 SCT025 BKN040 26/23 Q1007 NOSIG
  • 190100Z VRB03KT 9999 FEW016 SCT022 BKN030 26/23 Q1007 NOSIG

TAF TAF VTPM
Valido dal 19 a 00 ore il 20 a 00 ore UTC


182300Z 1900/1924 24005KT 9999 SCT030
TEMPO 1902/1908 4000 RA
TEMPO 1918/1924 4000 RA
FIR VTBB / Asia



MetMap, La meteo Aeronautica in un colpo d'occhio ! - Copyright ORBIFLY Dicembre 2007 - Disclaimer

ORBIFLY MET'MAP TEAM :

Programmazione e sviluppo : Alexandra Zaïnal
Concezione : Baudouin d'Aumeries
Supporto tecnico e logistico : Manuel Goepfert
Aiuto : Marc-Olivier Méhu
Aiuto per la traduzione : Arnaldo La Scala




FONTI E CREDITI :

   NOAA       Earth
Advisory